sensor_id;sensor_type;location;lat;lon;timestamp;temperature;humidity
10472;DHT22;5283;48.876;8.962;2022-12-08T00:01:12;-3.10;99.90
10472;DHT22;5283;48.876;8.962;2022-12-08T00:03:39;-3.20;99.90
10472;DHT22;5283;48.876;8.962;2022-12-08T00:06:57;-3.30;99.90
10472;DHT22;5283;48.876;8.962;2022-12-08T00:11:55;-3.20;99.90
10472;DHT22;5283;48.876;8.962;2022-12-08T00:14:40;-3.20;99.90
10472;DHT22;5283;48.876;8.962;2022-12-08T00:17:09;-3.20;99.90
10472;DHT22;5283;48.876;8.962;2022-12-08T00:19:36;-3.20;99.90
10472;DHT22;5283;48.876;8.962;2022-12-08T00:22:06;-3.20;99.90
10472;DHT22;5283;48.876;8.962;2022-12-08T00:24:35;-3.20;99.90
10472;DHT22;5283;48.876;8.962;2022-12-08T00:27:09;-3.20;99.90
10472;DHT22;5283;48.876;8.962;2022-12-08T00:29:36;-3.10;99.90
10472;DHT22;5283;48.876;8.962;2022-12-08T00:32:04;-3.10;99.90
10472;DHT22;5283;48.876;8.962;2022-12-08T00:34:32;-3.10;99.90
10472;DHT22;5283;48.876;8.962;2022-12-08T00:36:58;-3.10;99.90
10472;DHT22;5283;48.876;8.962;2022-12-08T00:39:25;-3.10;99.90
10472;DHT22;5283;48.876;8.962;2022-12-08T00:41:52;-3.30;99.90
10472;DHT22;5283;48.876;8.962;2022-12-08T00:44:37;-3.40;99.90
10472;DHT22;5283;48.876;8.962;2022-12-08T00:47:04;-3.40;99.90
10472;DHT22;5283;48.876;8.962;2022-12-08T00:49:31;-3.40;99.90
10472;DHT22;5283;48.876;8.962;2022-12-08T00:51:58;-3.30;99.90
10472;DHT22;5283;48.876;8.962;2022-12-08T00:54:24;-3.30;99.90
10472;DHT22;5283;48.876;8.962;2022-12-08T00:56:51;-3.30;99.90
10472;DHT22;5283;48.876;8.962;2022-12-08T00:59:18;-3.30;99.90
10472;DHT22;5283;48.876;8.962;2022-12-08T01:01:45;-3.30;99.90
10472;DHT22;5283;48.876;8.962;2022-12-08T01:04:14;-3.30;99.90
10472;DHT22;5283;48.876;8.962;2022-12-08T01:06:41;-3.30;99.90
10472;DHT22;5283;48.876;8.962;2022-12-08T01:09:08;-3.30;99.90
10472;DHT22;5283;48.876;8.962;2022-12-08T01:11:36;-3.30;99.90
10472;DHT22;5283;48.876;8.962;2022-12-08T01:14:02;-3.30;99.90
10472;DHT22;5283;48.876;8.962;2022-12-08T01:16:32;-3.30;99.90
10472;DHT22;5283;48.876;8.962;2022-12-08T01:18:59;-3.40;99.90
10472;DHT22;5283;48.876;8.962;2022-12-08T01:21:27;-3.40;99.90
10472;DHT22;5283;48.876;8.962;2022-12-08T01:23:54;-3.40;99.90
10472;DHT22;5283;48.876;8.962;2022-12-08T01:26:21;-3.40;99.90
10472;DHT22;5283;48.876;8.962;2022-12-08T01:28:48;-3.40;99.90
10472;DHT22;5283;48.876;8.962;2022-12-08T01:31:18;-3.50;99.90
10472;DHT22;5283;48.876;8.962;2022-12-08T01:33:45;-3.40;99.90
10472;DHT22;5283;48.876;8.962;2022-12-08T01:36:28;-3.40;99.90
10472;DHT22;5283;48.876;8.962;2022-12-08T01:38:58;-3.40;99.90
10472;DHT22;5283;48.876;8.962;2022-12-08T01:41:28;-3.40;99.90
10472;DHT22;5283;48.876;8.962;2022-12-08T01:44:01;-3.30;99.90
10472;DHT22;5283;48.876;8.962;2022-12-08T01:46:32;-3.30;99.90
10472;DHT22;5283;48.876;8.962;2022-12-08T01:49:04;-3.10;99.90
10472;DHT22;5283;48.876;8.962;2022-12-08T01:51:35;-3.20;99.90
10472;DHT22;5283;48.876;8.962;2022-12-08T01:54:05;-3.10;99.90
10472;DHT22;5283;48.876;8.962;2022-12-08T01:56:40;-3.10;99.90
10472;DHT22;5283;48.876;8.962;2022-12-08T01:59:07;-3.10;99.90
10472;DHT22;5283;48.876;8.962;2022-12-08T02:01:34;-3.00;99.90
10472;DHT22;5283;48.876;8.962;2022-12-08T02:04:02;-3.00;99.90
10472;DHT22;5283;48.876;8.962;2022-12-08T02:06:33;-2.80;99.90
10472;DHT22;5283;48.876;8.962;2022-12-08T02:09:02;-2.80;99.90
10472;DHT22;5283;48.876;8.962;2022-12-08T02:11:30;-2.70;99.90
10472;DHT22;5283;48.876;8.962;2022-12-08T02:13:58;-2.70;99.90
10472;DHT22;5283;48.876;8.962;2022-12-08T02:30:14;-2.90;99.90
10472;DHT22;5283;48.876;8.962;2022-12-08T02:35:53;-3.00;99.90
10472;DHT22;5283;48.876;8.962;2022-12-08T02:46:57;-2.90;99.90
10472;DHT22;5283;48.876;8.962;2022-12-08T02:49:32;-3.00;99.90
10472;DHT22;5283;48.876;8.962;2022-12-08T02:54:40;-3.20;99.90
10472;DHT22;5283;48.876;8.962;2022-12-08T03:00:08;-3.10;99.90
10472;DHT22;5283;48.876;8.962;2022-12-08T03:08:16;-3.40;99.90
10472;DHT22;5283;48.876;8.962;2022-12-08T03:11:14;-3.30;99.90
10472;DHT22;5283;48.876;8.962;2022-12-08T03:13:51;-3.30;99.90
10472;DHT22;5283;48.876;8.962;2022-12-08T03:16:24;-3.20;99.90
10472;DHT22;5283;48.876;8.962;2022-12-08T03:19:08;-3.30;99.90
10472;DHT22;5283;48.876;8.962;2022-12-08T03:21:36;-3.30;99.90
10472;DHT22;5283;48.876;8.962;2022-12-08T03:24:06;-3.30;99.90
10472;DHT22;5283;48.876;8.962;2022-12-08T03:29:17;-3.40;99.90
10472;DHT22;5283;48.876;8.962;2022-12-08T03:31:57;-3.40;99.90
10472;DHT22;5283;48.876;8.962;2022-12-08T03:34:27;-3.50;99.90
10472;DHT22;5283;48.876;8.962;2022-12-08T03:36:55;-3.50;99.90
10472;DHT22;5283;48.876;8.962;2022-12-08T03:39:22;-3.50;99.90
10472;DHT22;5283;48.876;8.962;2022-12-08T03:41:48;-3.60;99.90
10472;DHT22;5283;48.876;8.962;2022-12-08T03:44:15;-3.70;99.90
10472;DHT22;5283;48.876;8.962;2022-12-08T03:46:42;-3.70;99.90
10472;DHT22;5283;48.876;8.962;2022-12-08T03:49:08;-3.80;99.90
10472;DHT22;5283;48.876;8.962;2022-12-08T03:51:35;-3.70;99.90
10472;DHT22;5283;48.876;8.962;2022-12-08T03:54:02;-3.50;99.90
10472;DHT22;5283;48.876;8.962;2022-12-08T03:56:32;-3.50;99.90
10472;DHT22;5283;48.876;8.962;2022-12-08T03:58:59;-3.60;99.90
10472;DHT22;5283;48.876;8.962;2022-12-08T04:01:27;-3.50;99.90
10472;DHT22;5283;48.876;8.962;2022-12-08T04:03:53;-3.50;99.90
10472;DHT22;5283;48.876;8.962;2022-12-08T04:06:20;-3.50;99.90
10472;DHT22;5283;48.876;8.962;2022-12-08T04:08:48;-3.60;99.90
10472;DHT22;5283;48.876;8.962;2022-12-08T04:11:15;-3.70;99.90
10472;DHT22;5283;48.876;8.962;2022-12-08T04:13:42;-3.70;99.90
10472;DHT22;5283;48.876;8.962;2022-12-08T04:16:18;-3.70;99.90
10472;DHT22;5283;48.876;8.962;2022-12-08T04:18:45;-3.70;99.90
10472;DHT22;5283;48.876;8.962;2022-12-08T04:21:12;-3.80;99.90
10472;DHT22;5283;48.876;8.962;2022-12-08T04:23:39;-3.90;99.90
10472;DHT22;5283;48.876;8.962;2022-12-08T04:26:06;-3.90;99.90
10472;DHT22;5283;48.876;8.962;2022-12-08T04:28:33;-3.70;99.90
10472;DHT22;5283;48.876;8.962;2022-12-08T04:31:00;-3.70;99.90
10472;DHT22;5283;48.876;8.962;2022-12-08T04:33:27;-3.70;99.90
10472;DHT22;5283;48.876;8.962;2022-12-08T04:35:54;-3.60;99.90
10472;DHT22;5283;48.876;8.962;2022-12-08T04:38:21;-3.60;99.90
10472;DHT22;5283;48.876;8.962;2022-12-08T04:40:48;-3.60;99.90
10472;DHT22;5283;48.876;8.962;2022-12-08T04:43:15;-3.60;99.90
10472;DHT22;5283;48.876;8.962;2022-12-08T04:45:42;-3.50;99.90
10472;DHT22;5283;48.876;8.962;2022-12-08T04:48:09;-3.40;99.90
10472;DHT22;5283;48.876;8.962;2022-12-08T04:50:42;-3.40;99.90
10472;DHT22;5283;48.876;8.962;2022-12-08T04:53:10;-3.40;99.90
10472;DHT22;5283;48.876;8.962;2022-12-08T04:55:39;-3.40;99.90
10472;DHT22;5283;48.876;8.962;2022-12-08T04:58:06;-3.40;99.90
10472;DHT22;5283;48.876;8.962;2022-12-08T05:00:33;-3.40;99.90
10472;DHT22;5283;48.876;8.962;2022-12-08T05:03:00;-3.50;99.90
10472;DHT22;5283;48.876;8.962;2022-12-08T05:05:26;-3.50;99.90
10472;DHT22;5283;48.876;8.962;2022-12-08T05:07:53;-3.50;99.90
10472;DHT22;5283;48.876;8.962;2022-12-08T05:10:20;-3.50;99.90
10472;DHT22;5283;48.876;8.962;2022-12-08T05:12:47;-3.50;99.90
10472;DHT22;5283;48.876;8.962;2022-12-08T05:15:13;-3.40;99.90
10472;DHT22;5283;48.876;8.962;2022-12-08T05:17:40;-3.40;99.90
10472;DHT22;5283;48.876;8.962;2022-12-08T05:20:07;-3.30;99.90
10472;DHT22;5283;48.876;8.962;2022-12-08T05:22:34;-3.20;99.90
10472;DHT22;5283;48.876;8.962;2022-12-08T05:25:01;-3.20;99.90
10472;DHT22;5283;48.876;8.962;2022-12-08T05:27:28;-3.10;99.90
10472;DHT22;5283;48.876;8.962;2022-12-08T05:29:54;-3.10;99.90
10472;DHT22;5283;48.876;8.962;2022-12-08T05:32:21;-3.10;99.90
10472;DHT22;5283;48.876;8.962;2022-12-08T05:34:48;-3.10;99.90
10472;DHT22;5283;48.876;8.962;2022-12-08T05:37:15;-3.00;99.90
10472;DHT22;5283;48.876;8.962;2022-12-08T05:39:41;-3.00;99.90
10472;DHT22;5283;48.876;8.962;2022-12-08T05:42:08;-3.10;99.90
10472;DHT22;5283;48.876;8.962;2022-12-08T05:44:35;-3.10;99.90
10472;DHT22;5283;48.876;8.962;2022-12-08T05:47:02;-3.00;99.90
10472;DHT22;5283;48.876;8.962;2022-12-08T05:49:28;-2.90;99.90
10472;DHT22;5283;48.876;8.962;2022-12-08T05:51:55;-2.90;99.90
10472;DHT22;5283;48.876;8.962;2022-12-08T05:54:22;-2.90;99.90
10472;DHT22;5283;48.876;8.962;2022-12-08T05:56:49;-2.90;99.90
10472;DHT22;5283;48.876;8.962;2022-12-08T05:59:16;-2.90;99.90
10472;DHT22;5283;48.876;8.962;2022-12-08T06:01:43;-2.90;99.90
10472;DHT22;5283;48.876;8.962;2022-12-08T06:04:10;-3.00;99.90
10472;DHT22;5283;48.876;8.962;2022-12-08T06:06:37;-3.00;99.90
10472;DHT22;5283;48.876;8.962;2022-12-08T06:09:04;-3.00;99.90
10472;DHT22;5283;48.876;8.962;2022-12-08T06:11:32;-3.10;99.90
10472;DHT22;5283;48.876;8.962;2022-12-08T06:13:59;-3.10;99.90
10472;DHT22;5283;48.876;8.962;2022-12-08T06:16:26;-3.20;99.90
10472;DHT22;5283;48.876;8.962;2022-12-08T06:18:54;-3.20;99.90
10472;DHT22;5283;48.876;8.962;2022-12-08T06:21:21;-3.20;99.90
10472;DHT22;5283;48.876;8.962;2022-12-08T06:23:52;-3.30;99.90
10472;DHT22;5283;48.876;8.962;2022-12-08T06:26:20;-3.30;99.90
10472;DHT22;5283;48.876;8.962;2022-12-08T06:28:48;-3.30;99.90
10472;DHT22;5283;48.876;8.962;2022-12-08T06:31:24;-3.30;99.90
10472;DHT22;5283;48.876;8.962;2022-12-08T06:33:52;-3.30;99.90
10472;DHT22;5283;48.876;8.962;2022-12-08T06:36:22;-3.30;99.90
10472;DHT22;5283;48.876;8.962;2022-12-08T06:38:50;-3.30;99.90
10472;DHT22;5283;48.876;8.962;2022-12-08T06:41:17;-3.40;99.90
10472;DHT22;5283;48.876;8.962;2022-12-08T06:43:44;-3.40;99.90
10472;DHT22;5283;48.876;8.962;2022-12-08T06:46:14;-3.50;99.90
10472;DHT22;5283;48.876;8.962;2022-12-08T06:48:41;-3.50;99.90
10472;DHT22;5283;48.876;8.962;2022-12-08T06:51:14;-3.60;99.90
10472;DHT22;5283;48.876;8.962;2022-12-08T06:53:42;-3.60;99.90
10472;DHT22;5283;48.876;8.962;2022-12-08T06:56:10;-3.60;99.90
10472;DHT22;5283;48.876;8.962;2022-12-08T06:58:37;-3.60;99.90
10472;DHT22;5283;48.876;8.962;2022-12-08T07:01:08;-3.60;99.90
10472;DHT22;5283;48.876;8.962;2022-12-08T07:03:36;-3.60;99.90
10472;DHT22;5283;48.876;8.962;2022-12-08T07:06:04;-3.50;99.90
10472;DHT22;5283;48.876;8.962;2022-12-08T07:08:32;-3.50;99.90
10472;DHT22;5283;48.876;8.962;2022-12-08T07:11:02;-3.40;99.90
10472;DHT22;5283;48.876;8.962;2022-12-08T07:13:31;-3.40;99.90
10472;DHT22;5283;48.876;8.962;2022-12-08T07:15:58;-3.40;99.90
10472;DHT22;5283;48.876;8.962;2022-12-08T07:18:24;-3.40;99.90
10472;DHT22;5283;48.876;8.962;2022-12-08T07:20:51;-3.40;99.90
10472;DHT22;5283;48.876;8.962;2022-12-08T07:23:18;-3.40;99.90
10472;DHT22;5283;48.876;8.962;2022-12-08T07:25:45;-3.30;99.90
10472;DHT22;5283;48.876;8.962;2022-12-08T07:28:11;-3.30;99.90
10472;DHT22;5283;48.876;8.962;2022-12-08T07:30:38;-3.30;99.90
10472;DHT22;5283;48.876;8.962;2022-12-08T07:33:05;-3.20;99.90
10472;DHT22;5283;48.876;8.962;2022-12-08T07:35:32;-3.20;99.90
10472;DHT22;5283;48.876;8.962;2022-12-08T07:38:00;-3.10;99.90
10472;DHT22;5283;48.876;8.962;2022-12-08T07:40:27;-3.00;99.90
10472;DHT22;5283;48.876;8.962;2022-12-08T07:42:53;-2.90;99.90
10472;DHT22;5283;48.876;8.962;2022-12-08T07:45:20;-2.80;99.90
10472;DHT22;5283;48.876;8.962;2022-12-08T07:47:48;-2.70;99.90
10472;DHT22;5283;48.876;8.962;2022-12-08T07:50:15;-2.60;99.90
10472;DHT22;5283;48.876;8.962;2022-12-08T07:52:41;-2.50;99.90
10472;DHT22;5283;48.876;8.962;2022-12-08T07:55:08;-2.50;99.90
10472;DHT22;5283;48.876;8.962;2022-12-08T07:57:36;-2.40;99.90
10472;DHT22;5283;48.876;8.962;2022-12-08T08:00:04;-2.30;99.90
10472;DHT22;5283;48.876;8.962;2022-12-08T08:02:31;-2.30;99.90
10472;DHT22;5283;48.876;8.962;2022-12-08T08:04:57;-2.10;99.90
10472;DHT22;5283;48.876;8.962;2022-12-08T08:07:24;-2.00;99.90
10472;DHT22;5283;48.876;8.962;2022-12-08T08:09:51;-1.90;99.90
10472;DHT22;5283;48.876;8.962;2022-12-08T08:12:17;-1.70;99.90
10472;DHT22;5283;48.876;8.962;2022-12-08T08:15:00;-1.60;99.90
10472;DHT22;5283;48.876;8.962;2022-12-08T08:17:28;-1.50;99.90
10472;DHT22;5283;48.876;8.962;2022-12-08T08:19:55;-1.30;99.90
10472;DHT22;5283;48.876;8.962;2022-12-08T08:22:21;-1.20;99.90
10472;DHT22;5283;48.876;8.962;2022-12-08T08:24:48;-1.10;99.90
10472;DHT22;5283;48.876;8.962;2022-12-08T08:27:15;-1.00;99.90
10472;DHT22;5283;48.876;8.962;2022-12-08T08:29:41;-0.90;99.90
10472;DHT22;5283;48.876;8.962;2022-12-08T08:32:08;-0.80;99.90
10472;DHT22;5283;48.876;8.962;2022-12-08T08:34:35;-0.60;99.90
10472;DHT22;5283;48.876;8.962;2022-12-08T08:37:02;-0.40;99.90
10472;DHT22;5283;48.876;8.962;2022-12-08T08:39:29;-0.30;99.90
10472;DHT22;5283;48.876;8.962;2022-12-08T08:41:57;-0.20;99.90
10472;DHT22;5283;48.876;8.962;2022-12-08T08:44:24;-0.20;99.90
10472;DHT22;5283;48.876;8.962;2022-12-08T08:46:51;-0.10;99.90
10472;DHT22;5283;48.876;8.962;2022-12-08T08:49:17;0.00;99.90
10472;DHT22;5283;48.876;8.962;2022-12-08T08:51:44;0.10;99.90
10472;DHT22;5283;48.876;8.962;2022-12-08T08:54:11;0.20;99.90
10472;DHT22;5283;48.876;8.962;2022-12-08T08:56:38;0.30;99.90
10472;DHT22;5283;48.876;8.962;2022-12-08T08:59:04;0.30;99.90
10472;DHT22;5283;48.876;8.962;2022-12-08T09:01:31;0.40;99.90
10472;DHT22;5283;48.876;8.962;2022-12-08T09:03:59;0.50;99.90
10472;DHT22;5283;48.876;8.962;2022-12-08T09:06:26;0.50;99.90
10472;DHT22;5283;48.876;8.962;2022-12-08T09:08:54;0.60;99.90
10472;DHT22;5283;48.876;8.962;2022-12-08T09:11:21;0.60;99.90
10472;DHT22;5283;48.876;8.962;2022-12-08T09:13:50;0.60;99.90
10472;DHT22;5283;48.876;8.962;2022-12-08T09:16:17;0.60;99.90
10472;DHT22;5283;48.876;8.962;2022-12-08T09:18:44;0.60;99.90
10472;DHT22;5283;48.876;8.962;2022-12-08T09:21:16;0.70;99.90
10472;DHT22;5283;48.876;8.962;2022-12-08T09:23:53;0.80;99.90
10472;DHT22;5283;48.876;8.962;2022-12-08T09:26:21;0.80;99.90
10472;DHT22;5283;48.876;8.962;2022-12-08T09:28:48;0.80;99.90
10472;DHT22;5283;48.876;8.962;2022-12-08T09:31:16;0.80;99.90
10472;DHT22;5283;48.876;8.962;2022-12-08T09:33:43;0.80;99.90
10472;DHT22;5283;48.876;8.962;2022-12-08T09:36:10;0.80;99.90
10472;DHT22;5283;48.876;8.962;2022-12-08T09:38:37;0.80;99.90
10472;DHT22;5283;48.876;8.962;2022-12-08T09:41:22;0.80;99.90
10472;DHT22;5283;48.876;8.962;2022-12-08T09:46:51;1.00;99.90
10472;DHT22;5283;48.876;8.962;2022-12-08T09:49:22;1.00;99.90
10472;DHT22;5283;48.876;8.962;2022-12-08T09:51:53;1.00;99.90
10472;DHT22;5283;48.876;8.962;2022-12-08T09:54:23;1.00;99.90
10472;DHT22;5283;48.876;8.962;2022-12-08T09:56:54;1.00;99.90
10472;DHT22;5283;48.876;8.962;2022-12-08T09:59:30;1.00;99.90
10472;DHT22;5283;48.876;8.962;2022-12-08T10:02:00;1.10;99.90
10472;DHT22;5283;48.876;8.962;2022-12-08T10:07:02;1.20;99.90
10472;DHT22;5283;48.876;8.962;2022-12-08T10:15:49;1.40;99.90
10472;DHT22;5283;48.876;8.962;2022-12-08T10:18:22;1.50;99.90
10472;DHT22;5283;48.876;8.962;2022-12-08T10:20:50;1.70;99.90
10472;DHT22;5283;48.876;8.962;2022-12-08T10:23:20;1.70;99.90
10472;DHT22;5283;48.876;8.962;2022-12-08T10:25:51;1.80;99.90
10472;DHT22;5283;48.876;8.962;2022-12-08T10:28:18;1.80;99.90
10472;DHT22;5283;48.876;8.962;2022-12-08T10:30:45;1.80;99.90
10472;DHT22;5283;48.876;8.962;2022-12-08T10:33:15;1.80;99.90
10472;DHT22;5283;48.876;8.962;2022-12-08T10:35:47;1.80;99.90
10472;DHT22;5283;48.876;8.962;2022-12-08T10:38:30;1.90;99.90
10472;DHT22;5283;48.876;8.962;2022-12-08T10:41:15;1.90;99.90
10472;DHT22;5283;48.876;8.962;2022-12-08T10:43:51;2.00;99.90
10472;DHT22;5283;48.876;8.962;2022-12-08T10:46:21;2.10;99.90
10472;DHT22;5283;48.876;8.962;2022-12-08T10:49:09;2.10;99.90
10472;DHT22;5283;48.876;8.962;2022-12-08T10:51:41;2.20;99.90
10472;DHT22;5283;48.876;8.962;2022-12-08T10:54:32;2.30;99.90
10472;DHT22;5283;48.876;8.962;2022-12-08T10:56:59;2.30;99.90
10472;DHT22;5283;48.876;8.962;2022-12-08T10:59:26;2.40;99.90
10472;DHT22;5283;48.876;8.962;2022-12-08T11:01:55;2.50;99.90
10472;DHT22;5283;48.876;8.962;2022-12-08T11:04:36;2.60;99.90
10472;DHT22;5283;48.876;8.962;2022-12-08T11:07:04;2.70;99.90
10472;DHT22;5283;48.876;8.962;2022-12-08T11:09:42;2.90;99.90
10472;DHT22;5283;48.876;8.962;2022-12-08T11:12:14;3.00;99.90
10472;DHT22;5283;48.876;8.962;2022-12-08T11:17:14;3.20;99.90
10472;DHT22;5283;48.876;8.962;2022-12-08T11:19:54;3.40;99.90
10472;DHT22;5283;48.876;8.962;2022-12-08T11:22:31;3.50;99.90
10472;DHT22;5283;48.876;8.962;2022-12-08T11:27:35;3.70;99.90
10472;DHT22;5283;48.876;8.962;2022-12-08T11:30:21;3.80;99.90
10472;DHT22;5283;48.876;8.962;2022-12-08T11:33:02;3.70;99.90
10472;DHT22;5283;48.876;8.962;2022-12-08T11:35:35;3.80;99.90
10472;DHT22;5283;48.876;8.962;2022-12-08T11:38:11;3.90;99.90
10472;DHT22;5283;48.876;8.962;2022-12-08T11:40:49;3.90;99.90
10472;DHT22;5283;48.876;8.962;2022-12-08T11:46:08;4.10;99.90
10472;DHT22;5283;48.876;8.962;2022-12-08T11:49:05;4.20;99.90
10472;DHT22;5283;48.876;8.962;2022-12-08T11:54:29;4.30;99.90
10472;DHT22;5283;48.876;8.962;2022-12-08T11:56:59;4.40;99.90
10472;DHT22;5283;48.876;8.962;2022-12-08T11:59:39;4.50;99.90
10472;DHT22;5283;48.876;8.962;2022-12-08T12:02:17;4.60;99.90
10472;DHT22;5283;48.876;8.962;2022-12-08T12:18:28;4.40;99.90
10472;DHT22;5283;48.876;8.962;2022-12-08T12:21:05;4.30;99.90
10472;DHT22;5283;48.876;8.962;2022-12-08T12:23:38;4.20;99.90
10472;DHT22;5283;48.876;8.962;2022-12-08T12:26:09;4.20;99.90
10472;DHT22;5283;48.876;8.962;2022-12-08T12:28:43;4.10;99.90
10472;DHT22;5283;48.876;8.962;2022-12-08T12:31:15;4.10;99.90
10472;DHT22;5283;48.876;8.962;2022-12-08T12:33:45;4.10;99.90
10472;DHT22;5283;48.876;8.962;2022-12-08T12:36:13;4.10;99.90
10472;DHT22;5283;48.876;8.962;2022-12-08T12:38:49;4.10;99.90
10472;DHT22;5283;48.876;8.962;2022-12-08T12:50:03;4.10;99.90
10472;DHT22;5283;48.876;8.962;2022-12-08T13:05:01;3.90;99.90
10472;DHT22;5283;48.876;8.962;2022-12-08T13:07:35;4.00;99.90
10472;DHT22;5283;48.876;8.962;2022-12-08T13:12:42;3.90;99.90
10472;DHT22;5283;48.876;8.962;2022-12-08T13:15:19;3.90;99.90
10472;DHT22;5283;48.876;8.962;2022-12-08T13:17:47;3.90;99.90
10472;DHT22;5283;48.876;8.962;2022-12-08T13:20:22;3.80;99.90
10472;DHT22;5283;48.876;8.962;2022-12-08T13:23:10;3.70;99.90
10472;DHT22;5283;48.876;8.962;2022-12-08T13:28:20;3.60;99.90
10472;DHT22;5283;48.876;8.962;2022-12-08T13:31:01;3.60;99.90
10472;DHT22;5283;48.876;8.962;2022-12-08T13:33:36;3.50;99.90
10472;DHT22;5283;48.876;8.962;2022-12-08T13:36:16;3.40;99.90
10472;DHT22;5283;48.876;8.962;2022-12-08T13:38:46;3.40;99.90
10472;DHT22;5283;48.876;8.962;2022-12-08T13:41:21;3.40;99.90
10472;DHT22;5283;48.876;8.962;2022-12-08T13:43:56;3.40;99.90
10472;DHT22;5283;48.876;8.962;2022-12-08T13:46:48;3.40;99.90
10472;DHT22;5283;48.876;8.962;2022-12-08T13:50:05;3.40;99.90
10472;DHT22;5283;48.876;8.962;2022-12-08T13:52:59;3.30;99.90
10472;DHT22;5283;48.876;8.962;2022-12-08T13:55:49;3.40;99.90
10472;DHT22;5283;48.876;8.962;2022-12-08T13:58:38;3.40;99.90
10472;DHT22;5283;48.876;8.962;2022-12-08T14:01:20;3.30;99.90
10472;DHT22;5283;48.876;8.962;2022-12-08T14:03:55;3.30;99.90
10472;DHT22;5283;48.876;8.962;2022-12-08T14:06:46;3.30;99.90
10472;DHT22;5283;48.876;8.962;2022-12-08T14:09:17;3.30;99.90
10472;DHT22;5283;48.876;8.962;2022-12-08T14:11:57;3.30;99.90
10472;DHT22;5283;48.876;8.962;2022-12-08T14:14:41;3.30;99.90
10472;DHT22;5283;48.876;8.962;2022-12-08T14:17:31;3.30;99.90
10472;DHT22;5283;48.876;8.962;2022-12-08T14:20:01;3.30;99.90
10472;DHT22;5283;48.876;8.962;2022-12-08T14:22:39;3.20;99.90
10472;DHT22;5283;48.876;8.962;2022-12-08T14:25:10;3.10;99.90
10472;DHT22;5283;48.876;8.962;2022-12-08T14:27:38;3.00;99.90
10472;DHT22;5283;48.876;8.962;2022-12-08T14:30:31;2.90;99.90
10472;DHT22;5283;48.876;8.962;2022-12-08T14:33:00;2.80;99.90
10472;DHT22;5283;48.876;8.962;2022-12-08T14:35:32;2.80;99.90
10472;DHT22;5283;48.876;8.962;2022-12-08T14:38:18;2.80;99.90
10472;DHT22;5283;48.876;8.962;2022-12-08T14:41:02;2.70;99.90
10472;DHT22;5283;48.876;8.962;2022-12-08T14:43:30;2.80;99.90
10472;DHT22;5283;48.876;8.962;2022-12-08T14:46:18;2.70;99.90
10472;DHT22;5283;48.876;8.962;2022-12-08T14:48:45;2.70;99.90
10472;DHT22;5283;48.876;8.962;2022-12-08T14:51:20;2.60;99.90
10472;DHT22;5283;48.876;8.962;2022-12-08T14:56:39;2.50;99.90
10472;DHT22;5283;48.876;8.962;2022-12-08T14:59:31;2.50;99.90
10472;DHT22;5283;48.876;8.962;2022-12-08T15:05:03;2.50;99.90
10472;DHT22;5283;48.876;8.962;2022-12-08T15:07:35;2.40;99.90
10472;DHT22;5283;48.876;8.962;2022-12-08T15:15:50;2.30;99.90
10472;DHT22;5283;48.876;8.962;2022-12-08T15:18:38;2.20;99.90
10472;DHT22;5283;48.876;8.962;2022-12-08T15:21:07;2.10;99.90
10472;DHT22;5283;48.876;8.962;2022-12-08T15:26:09;2.00;99.90
10472;DHT22;5283;48.876;8.962;2022-12-08T15:28:38;2.00;99.90
10472;DHT22;5283;48.876;8.962;2022-12-08T15:31:05;2.00;99.90
10472;DHT22;5283;48.876;8.962;2022-12-08T15:33:31;1.90;99.90
10472;DHT22;5283;48.876;8.962;2022-12-08T15:35:58;1.90;99.90
10472;DHT22;5283;48.876;8.962;2022-12-08T15:38:26;1.90;99.90
10472;DHT22;5283;48.876;8.962;2022-12-08T15:40:55;1.80;99.90
10472;DHT22;5283;48.876;8.962;2022-12-08T15:43:24;1.80;99.90
10472;DHT22;5283;48.876;8.962;2022-12-08T15:45:51;1.70;99.90
10472;DHT22;5283;48.876;8.962;2022-12-08T15:48:28;1.70;99.90
10472;DHT22;5283;48.876;8.962;2022-12-08T15:50:55;1.60;99.90
10472;DHT22;5283;48.876;8.962;2022-12-08T15:53:22;1.60;99.90
10472;DHT22;5283;48.876;8.962;2022-12-08T15:55:49;1.60;99.90
10472;DHT22;5283;48.876;8.962;2022-12-08T15:58:36;1.60;99.90
10472;DHT22;5283;48.876;8.962;2022-12-08T16:01:18;1.50;99.90
10472;DHT22;5283;48.876;8.962;2022-12-08T16:03:45;1.50;99.90
10472;DHT22;5283;48.876;8.962;2022-12-08T16:06:31;1.50;99.90
10472;DHT22;5283;48.876;8.962;2022-12-08T16:09:31;1.40;99.90
10472;DHT22;5283;48.876;8.962;2022-12-08T16:11:58;1.40;99.90
10472;DHT22;5283;48.876;8.962;2022-12-08T16:14:43;1.40;99.90
10472;DHT22;5283;48.876;8.962;2022-12-08T16:17:30;1.30;99.90
10472;DHT22;5283;48.876;8.962;2022-12-08T16:19:58;1.30;99.90
10472;DHT22;5283;48.876;8.962;2022-12-08T16:22:28;1.20;99.90
10472;DHT22;5283;48.876;8.962;2022-12-08T16:25:16;1.20;99.90
10472;DHT22;5283;48.876;8.962;2022-12-08T16:27:45;1.10;99.90
10472;DHT22;5283;48.876;8.962;2022-12-08T16:30:32;1.10;99.90
10472;DHT22;5283;48.876;8.962;2022-12-08T16:32:59;1.00;99.90
10472;DHT22;5283;48.876;8.962;2022-12-08T16:35:26;1.00;99.90
10472;DHT22;5283;48.876;8.962;2022-12-08T16:37:52;1.00;99.90
10472;DHT22;5283;48.876;8.962;2022-12-08T16:40:19;1.00;99.90
10472;DHT22;5283;48.876;8.962;2022-12-08T16:42:46;1.00;99.90
10472;DHT22;5283;48.876;8.962;2022-12-08T16:47:45;0.90;99.90
10472;DHT22;5283;48.876;8.962;2022-12-08T16:50:15;0.90;99.90
10472;DHT22;5283;48.876;8.962;2022-12-08T16:52:43;0.90;99.90
10472;DHT22;5283;48.876;8.962;2022-12-08T16:55:12;0.90;99.90
10472;DHT22;5283;48.876;8.962;2022-12-08T16:57:39;0.80;99.90
10472;DHT22;5283;48.876;8.962;2022-12-08T17:00:08;0.80;99.90
10472;DHT22;5283;48.876;8.962;2022-12-08T17:02:35;0.80;99.90
10472;DHT22;5283;48.876;8.962;2022-12-08T17:05:03;0.80;99.90
10472;DHT22;5283;48.876;8.962;2022-12-08T17:07:30;0.80;99.90
10472;DHT22;5283;48.876;8.962;2022-12-08T17:09:57;0.80;99.90
10472;DHT22;5283;48.876;8.962;2022-12-08T17:12:24;0.80;99.90
10472;DHT22;5283;48.876;8.962;2022-12-08T17:14:51;0.80;99.90
10472;DHT22;5283;48.876;8.962;2022-12-08T17:17:18;0.80;99.90
10472;DHT22;5283;48.876;8.962;2022-12-08T17:19:44;0.70;99.90
10472;DHT22;5283;48.876;8.962;2022-12-08T17:22:11;0.70;99.90
10472;DHT22;5283;48.876;8.962;2022-12-08T17:24:38;0.70;99.90
10472;DHT22;5283;48.876;8.962;2022-12-08T17:27:05;0.70;99.90
10472;DHT22;5283;48.876;8.962;2022-12-08T17:29:32;0.70;99.90
10472;DHT22;5283;48.876;8.962;2022-12-08T17:31:59;0.70;99.90
10472;DHT22;5283;48.876;8.962;2022-12-08T17:34:26;0.60;99.90
10472;DHT22;5283;48.876;8.962;2022-12-08T17:36:53;0.60;99.90
10472;DHT22;5283;48.876;8.962;2022-12-08T17:39:20;0.50;99.90
10472;DHT22;5283;48.876;8.962;2022-12-08T17:41:47;0.50;99.90
10472;DHT22;5283;48.876;8.962;2022-12-08T17:44:17;0.40;99.90
10472;DHT22;5283;48.876;8.962;2022-12-08T17:46:45;0.40;99.90
10472;DHT22;5283;48.876;8.962;2022-12-08T17:49:19;0.30;99.90
10472;DHT22;5283;48.876;8.962;2022-12-08T17:51:47;0.30;99.90
10472;DHT22;5283;48.876;8.962;2022-12-08T17:54:16;0.30;99.90
10472;DHT22;5283;48.876;8.962;2022-12-08T17:56:43;0.20;99.90
10472;DHT22;5283;48.876;8.962;2022-12-08T17:59:11;0.20;99.90
10472;DHT22;5283;48.876;8.962;2022-12-08T18:01:38;0.20;99.90
10472;DHT22;5283;48.876;8.962;2022-12-08T18:04:07;0.30;99.90
10472;DHT22;5283;48.876;8.962;2022-12-08T18:06:35;0.30;99.90
10472;DHT22;5283;48.876;8.962;2022-12-08T18:09:03;0.30;99.90
10472;DHT22;5283;48.876;8.962;2022-12-08T18:11:32;0.30;99.90
10472;DHT22;5283;48.876;8.962;2022-12-08T18:13:59;0.30;99.90
10472;DHT22;5283;48.876;8.962;2022-12-08T18:16:28;0.30;99.90
10472;DHT22;5283;48.876;8.962;2022-12-08T18:18:56;0.30;99.90